createdAt,value
2023-04-17T00:00:39.906Z,91.56
2023-04-17T00:01:39.900Z,91.67
2023-04-17T00:02:40.403Z,91.56
2023-04-17T00:03:40.060Z,91.56
2023-04-17T00:04:40.147Z,92.02
2023-04-17T00:05:39.850Z,91.67
2023-04-17T00:06:39.858Z,91.77
2023-04-17T00:07:44.859Z,92.02
2023-04-17T00:08:39.809Z,91.91
2023-04-17T00:09:39.805Z,91.87
2023-04-17T00:10:39.808Z,91.67
2023-04-17T00:11:39.790Z,91.71
2023-04-17T00:12:39.775Z,91.77
2023-04-17T00:13:39.755Z,91.87
2023-04-17T00:14:39.744Z,91.67
2023-04-17T00:15:39.751Z,91.67
2023-04-17T00:16:39.782Z,91.82
2023-04-17T00:17:39.745Z,91.71
2023-04-17T00:18:44.720Z,92.12
2023-04-17T00:19:39.686Z,92.12
2023-04-17T00:20:39.677Z,92.12
2023-04-17T00:21:39.661Z,92.12
2023-04-17T00:22:39.678Z,91.97
2023-04-17T00:23:39.653Z,92.28
2023-04-17T00:24:39.633Z,91.97
2023-04-17T00:25:39.616Z,92.28
2023-04-17T00:26:39.622Z,92.12
2023-04-17T00:27:39.604Z,92.12
2023-04-17T00:28:39.600Z,92.32
2023-04-17T00:29:44.609Z,91.82
2023-04-17T00:30:39.562Z,93.04
2023-04-17T00:31:39.603Z,93.25
2023-04-17T00:32:39.597Z,93.15
2023-04-17T00:33:39.535Z,93.04
2023-04-17T00:34:39.533Z,92.83
2023-04-17T00:35:39.504Z,92.94
2023-04-17T00:36:39.506Z,92.94
2023-04-17T00:37:39.509Z,92.02
2023-04-17T00:38:39.480Z,92.32
2023-04-17T00:39:39.461Z,92.43
2023-04-17T00:40:44.489Z,92.32
2023-04-17T00:41:39.650Z,92.94
2023-04-17T00:42:39.429Z,92.83
2023-04-17T00:43:39.424Z,92.43
2023-04-17T00:44:39.420Z,92.83
2023-04-17T00:45:39.429Z,92.53
2023-04-17T00:46:39.407Z,92.94
2023-04-17T00:47:39.437Z,92.43
2023-04-17T00:48:39.373Z,92.53
2023-04-17T00:49:39.349Z,92.63
2023-04-17T00:50:39.339Z,92.43
2023-04-17T00:51:44.348Z,92.63
2023-04-17T00:52:39.338Z,92.53
2023-04-17T00:53:39.326Z,92.53
2023-04-17T00:54:39.292Z,92.63
2023-04-17T00:55:39.311Z,92.43
2023-04-17T00:56:39.273Z,92.53
2023-04-17T00:57:39.268Z,92.83
2023-04-17T00:58:39.287Z,92.12
2023-04-17T00:59:39.246Z,92.12
2023-04-17T01:00:39.231Z,92.83
2023-04-17T01:01:39.305Z,92.83
2023-04-17T01:02:44.381Z,92.74
2023-04-17T01:03:39.371Z,92.22
2023-04-17T01:04:39.232Z,92.83
2023-04-17T01:05:39.171Z,92.43
2023-04-17T01:06:39.161Z,92.74
2023-04-17T01:07:39.151Z,92.53
2023-04-17T01:08:39.142Z,92.83
2023-04-17T01:09:39.131Z,93.35
2023-04-17T01:10:39.123Z,92.94
2023-04-17T01:11:39.135Z,92.98
2023-04-17T01:12:39.100Z,92.63
2023-04-17T01:13:44.108Z,93.25
2023-04-17T01:14:39.070Z,93.15
2023-04-17T01:15:39.055Z,93.15
2023-04-17T01:16:39.124Z,93.29
2023-04-17T01:17:39.110Z,93.19
2023-04-17T01:18:39.052Z,93.15
2023-04-17T01:19:39.010Z,93.35
2023-04-17T01:20:39.015Z,93.35
2023-04-17T01:21:38.999Z,93.35
2023-04-17T01:22:38.999Z,93.25
2023-04-17T01:23:38.973Z,93.15
2023-04-17T01:24:43.983Z,93.39
2023-04-17T01:25:38.939Z,93.35
2023-04-17T01:26:38.930Z,93.29
2023-04-17T01:27:38.915Z,93.35
2023-04-17T01:28:38.928Z,93.19
2023-04-17T01:29:38.895Z,93.19
2023-04-17T01:30:38.914Z,93.04
2023-04-17T01:31:38.884Z,93.25
2023-04-17T01:32:38.919Z,93.29
2023-04-17T01:33:38.860Z,93.08
2023-04-17T01:34:38.878Z,93.29
2023-04-17T01:35:43.850Z,93.25
2023-04-17T01:36:38.814Z,93.19
2023-04-17T01:37:38.803Z,93.19
2023-04-17T01:38:38.807Z,93.19
2023-04-17T01:39:38.780Z,93.25
2023-04-17T01:40:38.804Z,93.35
2023-04-17T01:41:38.769Z,93.08
2023-04-17T01:42:38.753Z,93.25
2023-04-17T01:43:38.746Z,93.29
2023-04-17T01:44:38.726Z,93.29
2023-04-17T01:45:38.722Z,93.15
2023-04-17T01:46:43.783Z,93.04
2023-04-17T01:47:38.723Z,93.08
2023-04-17T01:48:38.689Z,93.15
2023-04-17T01:49:38.669Z,93.15
2023-04-17T01:50:38.680Z,93.29
2023-04-17T01:51:38.650Z,93.04
2023-04-17T01:52:38.681Z,93.15
2023-04-17T01:53:38.631Z,93.04
2023-04-17T01:54:38.616Z,93.19
2023-04-17T01:55:38.602Z,93.19
2023-04-17T01:56:38.602Z,93.49
2023-04-17T01:57:43.623Z,93.49
2023-04-17T01:58:38.608Z,93.49
2023-04-17T01:59:38.554Z,93.49
2023-04-17T02:00:38.544Z,93.49
2023-04-17T02:01:38.632Z,93.29
2023-04-17T02:02:38.653Z,93.15
2023-04-17T02:03:38.718Z,93.39
2023-04-17T02:04:38.726Z,93.29
2023-04-17T02:05:38.527Z,93.39
2023-04-17T02:06:38.500Z,93.39
2023-04-17T02:07:38.509Z,93.29
2023-04-17T02:08:43.497Z,93.45
2023-04-17T02:09:38.450Z,93.49
2023-04-17T02:10:38.452Z,93.29
2023-04-17T02:11:38.420Z,93.19
2023-04-17T02:12:38.408Z,93.08
2023-04-17T02:13:38.408Z,93.29
2023-04-17T02:14:38.383Z,93.19
2023-04-17T02:15:38.385Z,93.29
2023-04-17T02:16:38.382Z,93.39
2023-04-17T02:17:38.378Z,93.29
2023-04-17T02:18:38.349Z,93.39
2023-04-17T02:19:43.357Z,93.39
2023-04-17T02:20:38.353Z,93.29
2023-04-17T02:21:38.307Z,93.15
2023-04-17T02:22:38.405Z,92.88
2023-04-17T02:23:38.294Z,93.08
2023-04-17T02:24:38.281Z,93.25
2023-04-17T02:25:38.262Z,93.25
2023-04-17T02:26:38.253Z,92.74
2023-04-17T02:27:38.240Z,92.68
2023-04-17T02:28:38.302Z,92.88
2023-04-17T02:29:38.221Z,92.57
2023-04-17T02:30:43.238Z,92.47
2023-04-17T02:31:38.283Z,92.53
2023-04-17T02:32:38.227Z,92.47
2023-04-17T02:33:38.193Z,92.57
2023-04-17T02:34:38.188Z,92.27
2023-04-17T02:35:38.155Z,92.98
2023-04-17T02:36:38.168Z,92.43
2023-04-17T02:37:38.131Z,92.78
2023-04-17T02:38:38.154Z,92.68
2023-04-17T02:39:38.124Z,92.88
2023-04-17T02:40:38.132Z,92.78
2023-04-17T02:41:43.108Z,93.15
2023-04-17T02:42:38.070Z,92.68
2023-04-17T02:43:38.083Z,92.68
2023-04-17T02:44:38.063Z,93.19
2023-04-17T02:45:38.050Z,93.29
2023-04-17T02:46:38.127Z,93.25
2023-04-17T02:47:38.071Z,92.78
2023-04-17T02:48:38.026Z,92.74
2023-04-17T02:49:38.001Z,93.04
2023-04-17T02:50:37.983Z,93.19
2023-04-17T02:51:37.986Z,93.29
2023-04-17T02:52:43.015Z,93.29
2023-04-17T02:53:37.960Z,93.19
2023-04-17T02:54:37.956Z,93.19
2023-04-17T02:55:37.929Z,93.08
2023-04-17T02:56:37.915Z,93.29
2023-04-17T02:57:37.912Z,93.60
2023-04-17T02:58:37.933Z,93.60
2023-04-17T02:59:37.891Z,93.33
2023-04-17T03:00:37.914Z,93.49
2023-04-17T03:01:37.890Z,93.49
2023-04-17T03:02:38.120Z,93.49
2023-04-17T03:03:43.266Z,93.60
2023-04-17T03:04:37.859Z,93.39
2023-04-17T03:05:37.812Z,93.54
2023-04-17T03:06:37.800Z,93.49
2023-04-17T03:07:37.794Z,93.39
2023-04-17T03:08:37.783Z,93.33
2023-04-17T03:09:37.779Z,93.49
2023-04-17T03:10:37.794Z,93.54
2023-04-17T03:11:37.752Z,93.44
2023-04-17T03:12:37.744Z,93.44
2023-04-17T03:13:37.737Z,93.13
2023-04-17T03:14:42.745Z,93.33
2023-04-17T03:15:37.700Z,93.64
2023-04-17T03:16:37.751Z,93.64
2023-04-17T03:17:37.745Z,93.54
2023-04-17T03:18:37.666Z,93.33
2023-04-17T03:19:37.667Z,93.29
2023-04-17T03:20:37.653Z,93.44
2023-04-17T03:21:37.638Z,93.54
2023-04-17T03:22:37.658Z,93.44
2023-04-17T03:23:37.626Z,93.33
2023-04-17T03:24:37.612Z,93.54
2023-04-17T03:25:42.629Z,93.44
2023-04-17T03:26:37.579Z,93.44
2023-04-17T03:27:37.581Z,93.64
2023-04-17T03:28:37.584Z,93.54
2023-04-17T03:29:37.562Z,93.33
2023-04-17T03:30:37.547Z,93.33
2023-04-17T03:31:37.578Z,93.64
2023-04-17T03:32:37.546Z,93.64
2023-04-17T03:33:37.501Z,93.44
2023-04-17T03:34:37.517Z,93.54
2023-04-17T03:35:37.479Z,93.85
2023-04-17T03:36:42.482Z,93.85
2023-04-17T03:37:37.470Z,94.15
2023-04-17T03:38:37.448Z,93.95
2023-04-17T03:39:37.438Z,94.15
2023-04-17T03:40:37.444Z,94.10
2023-04-17T03:41:37.434Z,93.95
2023-04-17T03:42:37.400Z,93.99
2023-04-17T03:43:37.385Z,93.74
2023-04-17T03:44:37.384Z,94.46
2023-04-17T03:45:37.402Z,94.15
2023-04-17T03:46:37.369Z,94.46
2023-04-17T03:47:42.451Z,94.56
2023-04-17T03:48:37.339Z,94.56
2023-04-17T03:49:37.314Z,94.56
2023-04-17T03:50:37.307Z,94.67
2023-04-17T03:51:37.314Z,94.61
2023-04-17T03:52:37.307Z,94.51
2023-04-17T03:53:37.292Z,94.87
2023-04-17T03:54:37.258Z,94.56
2023-04-17T03:55:37.250Z,94.56
2023-04-17T03:56:37.268Z,94.71
2023-04-17T03:57:37.309Z,94.10
2023-04-17T03:58:42.304Z,94.61
2023-04-17T03:59:37.199Z,94.67
2023-04-17T04:00:37.195Z,94.36
2023-04-17T04:01:37.175Z,95.18
2023-04-17T04:02:37.296Z,95.07
2023-04-17T04:03:37.390Z,95.12
2023-04-17T04:04:37.247Z,95.18
2023-04-17T04:05:37.132Z,94.87
2023-04-17T04:06:37.117Z,95.12
2023-04-17T04:07:37.105Z,95.02
2023-04-17T04:08:37.093Z,95.32
2023-04-17T04:09:42.122Z,95.32
2023-04-17T04:10:37.096Z,95.43
2023-04-17T04:11:37.065Z,95.43
2023-04-17T04:12:37.049Z,95.43
2023-04-17T04:13:37.063Z,95.32
2023-04-17T04:14:37.848Z,95.64
2023-04-17T04:15:37.040Z,95.53
2023-04-17T04:16:37.104Z,95.53
2023-04-17T04:17:37.019Z,94.92
2023-04-17T04:18:36.987Z,95.53
2023-04-17T04:19:36.987Z,95.53
2023-04-17T04:20:41.976Z,95.32
2023-04-17T04:21:36.948Z,95.43
2023-04-17T04:22:36.957Z,95.43
2023-04-17T04:23:36.921Z,95.53
2023-04-17T04:24:36.930Z,95.94
2023-04-17T04:25:36.912Z,95.53
2023-04-17T04:26:36.891Z,95.74
2023-04-17T04:27:36.886Z,95.74
2023-04-17T04:28:36.915Z,95.94
2023-04-17T04:29:36.883Z,95.94
2023-04-17T04:30:36.853Z,95.84
2023-04-17T04:31:41.873Z,95.84
2023-04-17T04:32:36.860Z,95.94
2023-04-17T04:33:36.817Z,95.94
2023-04-17T04:34:36.838Z,95.94
2023-04-17T04:35:38.210Z,95.94
2023-04-17T04:36:36.778Z,95.84
2023-04-17T04:37:36.766Z,95.94
2023-04-17T04:38:36.753Z,95.94
2023-04-17T04:39:36.765Z,96.15
2023-04-17T04:40:36.744Z,95.74
2023-04-17T04:41:36.718Z,95.74
2023-04-17T04:42:41.736Z,95.94
2023-04-17T04:43:36.696Z,95.94
2023-04-17T04:44:36.693Z,95.74
2023-04-17T04:45:36.690Z,95.53
2023-04-17T04:46:36.713Z,95.49
2023-04-17T04:47:36.772Z,95.49
2023-04-17T04:48:36.642Z,95.74
2023-04-17T04:49:36.637Z,95.59
2023-04-17T04:50:36.621Z,95.53
2023-04-17T04:51:36.605Z,95.49
2023-04-17T04:52:36.604Z,95.90
2023-04-17T04:53:41.611Z,95.43
2023-04-17T04:54:36.582Z,95.43
2023-04-17T04:55:36.568Z,95.23
2023-04-17T04:56:36.552Z,95.94
2023-04-17T04:57:36.539Z,95.69
2023-04-17T04:58:36.544Z,95.39
2023-04-17T04:59:38.507Z,95.49
2023-04-17T05:00:36.515Z,95.49
2023-04-17T05:01:36.589Z,95.49
2023-04-17T05:02:36.629Z,95.28
2023-04-17T05:03:36.673Z,95.49
2023-04-17T05:04:41.620Z,95.18
2023-04-17T05:05:36.451Z,95.07
2023-04-17T05:06:36.443Z,95.59
2023-04-17T05:07:36.427Z,95.28
2023-04-17T05:08:36.419Z,95.18
2023-04-17T05:09:36.416Z,94.98
2023-04-17T05:10:36.411Z,95.18
2023-04-17T05:11:36.387Z,94.98
2023-04-17T05:12:36.374Z,95.07
2023-04-17T05:13:36.371Z,95.28
2023-04-17T05:14:36.367Z,94.98
2023-04-17T05:15:41.373Z,95.07
2023-04-17T05:16:36.394Z,94.32
2023-04-17T05:17:36.387Z,94.26
2023-04-17T05:18:36.303Z,94.46
2023-04-17T05:19:36.311Z,94.67
2023-04-17T05:20:36.282Z,94.87
2023-04-17T05:21:36.276Z,94.56
2023-04-17T05:22:36.293Z,94.77
2023-04-17T05:23:36.251Z,94.42
2023-04-17T05:24:36.244Z,94.67
2023-04-17T05:25:36.239Z,94.11
2023-04-17T05:26:41.240Z,94.67
2023-04-17T05:27:36.208Z,94.36
2023-04-17T05:28:36.214Z,93.70
2023-04-17T05:29:36.205Z,94.11
2023-04-17T05:30:36.168Z,93.90
2023-04-17T05:31:36.259Z,93.80
2023-04-17T05:32:36.174Z,93.90
2023-04-17T05:33:36.157Z,93.60
2023-04-17T05:34:36.157Z,93.25
2023-04-17T05:35:36.112Z,93.35
2023-04-17T05:36:36.110Z,93.25
2023-04-17T05:37:41.117Z,93.04
2023-04-17T05:38:36.078Z,93.35
2023-04-17T05:39:36.079Z,93.25
2023-04-17T05:40:36.092Z,92.63
2023-04-17T05:41:36.045Z,92.53
2023-04-17T05:42:36.042Z,92.38
2023-04-17T05:43:36.020Z,92.83
2023-04-17T05:44:36.014Z,92.18
2023-04-17T05:45:36.043Z,92.28
2023-04-17T05:46:36.003Z,93.00
2023-04-17T05:47:36.008Z,92.28
2023-04-17T05:48:40.997Z,93.00
2023-04-17T05:49:35.953Z,92.08
2023-04-17T05:50:35.962Z,92.28
2023-04-17T05:51:35.934Z,91.87
2023-04-17T05:52:37.996Z,91.36
2023-04-17T05:53:35.915Z,91.31
2023-04-17T05:54:35.904Z,91.36
2023-04-17T05:55:35.913Z,90.81
2023-04-17T05:56:35.875Z,90.60
2023-04-17T05:57:35.874Z,90.60
2023-04-17T05:58:35.883Z,90.70
2023-04-17T05:59:40.874Z,90.91
2023-04-17T06:00:35.842Z,91.11
2023-04-17T06:01:35.816Z,90.39
2023-04-17T06:02:35.898Z,90.39
2023-04-17T06:03:35.976Z,90.09
2023-04-17T06:04:36.167Z,89.58
2023-04-17T06:05:35.863Z,89.78
2023-04-17T06:06:35.760Z,89.58
2023-04-17T06:07:35.751Z,89.58
2023-04-17T06:08:35.740Z,89.89
2023-04-17T06:09:35.737Z,89.12
2023-04-17T06:10:40.801Z,89.74
2023-04-17T06:11:35.702Z,89.23
2023-04-17T06:12:35.700Z,89.53
2023-04-17T06:13:35.693Z,89.03
2023-04-17T06:14:35.672Z,89.23
2023-04-17T06:15:35.666Z,89.12
2023-04-17T06:16:35.666Z,88.68
2023-04-17T06:17:35.649Z,87.92
2023-04-17T06:18:35.625Z,87.51
2023-04-17T06:19:35.631Z,87.35
2023-04-17T06:20:37.327Z,87.00
2023-04-17T06:21:40.618Z,86.79
2023-04-17T06:22:35.595Z,85.97
2023-04-17T06:23:35.565Z,85.38
2023-04-17T06:24:35.556Z,84.57
2023-04-17T06:25:35.553Z,83.75
2023-04-17T06:26:35.552Z,84.16
2023-04-17T06:27:37.040Z,85.18
2023-04-17T06:28:35.529Z,84.36
2023-04-17T06:29:35.500Z,84.57
2023-04-17T06:30:35.625Z,84.30
2023-04-17T06:31:35.528Z,84.26
2023-04-17T06:32:40.516Z,84.36
2023-04-17T06:33:35.451Z,83.85
2023-04-17T06:34:36.918Z,83.65
2023-04-17T06:35:35.447Z,83.65
2023-04-17T06:36:35.440Z,83.75
2023-04-17T06:37:35.411Z,83.40
2023-04-17T06:38:35.414Z,83.00
2023-04-17T06:39:35.390Z,82.89
2023-04-17T06:40:35.403Z,82.28
2023-04-17T06:41:35.366Z,81.18
2023-04-17T06:42:35.382Z,80.02
2023-04-17T06:43:40.370Z,78.22
2023-04-17T06:44:35.327Z,77.20
2023-04-17T06:45:35.340Z,76.65
2023-04-17T06:46:35.356Z,76.76
2023-04-17T06:47:35.331Z,76.15
2023-04-17T06:48:35.284Z,77.00
2023-04-17T06:49:35.271Z,77.07
2023-04-17T06:50:35.297Z,77.98
2023-04-17T06:51:35.250Z,79.35
2023-04-17T06:52:35.290Z,79.69
2023-04-17T06:53:35.232Z,80.30
2023-04-17T06:54:40.242Z,80.51
2023-04-17T06:55:35.230Z,80.34
2023-04-17T06:56:35.196Z,81.37
2023-04-17T06:57:35.180Z,81.02
2023-04-17T06:58:35.181Z,81.23
2023-04-17T06:59:35.156Z,80.78
2023-04-17T07:00:35.164Z,79.32
2023-04-17T07:01:35.202Z,78.93
2023-04-17T07:02:35.194Z,77.20
2023-04-17T07:03:36.118Z,77.20
2023-04-17T07:04:35.132Z,76.82
2023-04-17T07:05:40.122Z,76.42
2023-04-17T07:06:35.089Z,75.26
2023-04-17T07:07:35.064Z,74.31
2023-04-17T07:08:35.091Z,74.24
2023-04-17T07:09:35.042Z,75.33
2023-04-17T07:10:35.079Z,77.24
2023-04-17T07:11:35.020Z,77.40
2023-04-17T07:12:35.042Z,76.86
2023-04-17T07:13:34.996Z,75.50
2023-04-17T07:14:34.988Z,73.94
2023-04-17T07:15:35.011Z,73.91
2023-04-17T07:16:40.048Z,72.45
2023-04-17T07:17:34.995Z,72.65
2023-04-17T07:18:34.948Z,72.04
2023-04-17T07:19:34.934Z,72.04
2023-04-17T07:20:34.927Z,73.06
2023-04-17T07:21:34.902Z,72.58
2023-04-17T07:22:34.912Z,73.74
2023-04-17T07:23:34.879Z,73.60
2023-04-17T07:24:34.902Z,73.84
2023-04-17T07:25:34.877Z,73.80
2023-04-17T07:26:34.873Z,73.19
2023-04-17T07:27:39.863Z,71.94
2023-04-17T07:28:34.847Z,72.45
2023-04-17T07:29:34.818Z,72.65
2023-04-17T07:30:34.814Z,72.52
2023-04-17T07:31:34.847Z,71.94
2023-04-17T07:32:34.795Z,72.08
2023-04-17T07:33:34.779Z,72.48
2023-04-17T07:34:34.785Z,72.89
2023-04-17T07:35:34.757Z,74.08
2023-04-17T07:36:34.739Z,74.79
2023-04-17T07:37:34.735Z,75.91
2023-04-17T07:38:41.029Z,74.89
2023-04-17T07:39:34.699Z,75.30
2023-04-17T07:40:34.726Z,76.04
2023-04-17T07:41:34.686Z,75.95
2023-04-17T07:42:34.666Z,75.30
2023-04-17T07:43:34.660Z,75.84
2023-04-17T07:44:34.651Z,76.04
2023-04-17T07:45:34.641Z,75.91
2023-04-17T07:46:34.678Z,75.40
2023-04-17T07:47:34.636Z,74.48
2023-04-17T07:48:34.609Z,74.15
2023-04-17T07:49:39.637Z,73.43
2023-04-17T07:50:34.599Z,72.78
2023-04-17T07:51:34.617Z,72.69
2023-04-17T07:52:34.614Z,72.41
2023-04-17T07:53:34.536Z,72.62
2023-04-17T07:54:34.528Z,74.04
2023-04-17T07:55:34.523Z,73.74
2023-04-17T07:56:34.676Z,74.35
2023-04-17T07:57:34.498Z,74.15
2023-04-17T07:58:34.499Z,74.45
2023-04-17T07:59:34.473Z,74.35
2023-04-17T08:00:39.490Z,74.18
2023-04-17T08:01:34.465Z,74.38
2023-04-17T08:02:34.549Z,74.45
2023-04-17T08:03:34.684Z,74.69
2023-04-17T08:04:34.644Z,75.20
2023-04-17T08:05:34.412Z,75.09
2023-04-17T08:06:34.394Z,75.54
2023-04-17T08:07:34.387Z,75.84
2023-04-17T08:08:34.368Z,76.45
2023-04-17T08:09:34.369Z,76.65
2023-04-17T08:10:34.355Z,76.90
2023-04-17T08:11:53.344Z,77.06
2023-04-17T08:12:35.325Z,75.95
2023-04-17T08:13:34.390Z,75.91
2023-04-17T08:14:34.308Z,75.30
2023-04-17T08:15:34.326Z,74.79
2023-04-17T08:16:34.331Z,74.45
2023-04-17T08:17:34.344Z,74.31
2023-04-17T08:18:34.274Z,73.80
2023-04-17T08:19:34.248Z,72.45
2023-04-17T08:20:34.246Z,71.70
2023-04-17T08:21:34.244Z,71.94
2023-04-17T08:22:39.246Z,70.52
2023-04-17T08:23:34.195Z,70.42
2023-04-17T08:24:34.196Z,70.11
2023-04-17T08:25:34.198Z,70.42
2023-04-17T08:26:34.169Z,70.11
2023-04-17T08:27:34.171Z,69.81
2023-04-17T08:28:34.158Z,69.70
2023-04-17T08:29:34.134Z,69.09
2023-04-17T08:30:34.167Z,68.89
2023-04-17T08:31:34.109Z,69.70
2023-04-17T08:32:34.117Z,69.70
2023-04-17T08:33:39.110Z,69.47
2023-04-17T08:34:34.101Z,69.17
2023-04-17T08:35:34.062Z,67.84
2023-04-17T08:36:34.081Z,67.54
2023-04-17T08:37:34.038Z,66.32
2023-04-17T08:38:34.030Z,66.12
2023-04-17T08:39:34.014Z,65.30
2023-04-17T08:40:34.036Z,65.30
2023-04-17T08:41:34.008Z,65.61
2023-04-17T08:42:33.989Z,64.90
2023-04-17T08:43:33.988Z,65.30
2023-04-17T08:44:39.004Z,65.07
2023-04-17T08:45:33.947Z,64.46
2023-04-17T08:46:34.016Z,64.97
2023-04-17T08:47:33.974Z,64.26
2023-04-17T08:48:33.921Z,64.67
2023-04-17T08:49:33.901Z,65.07
2023-04-17T08:50:33.901Z,64.36
2023-04-17T08:51:33.889Z,64.36
2023-04-17T08:52:33.895Z,64.76
2023-04-17T08:53:33.856Z,66.05
2023-04-17T08:54:33.904Z,65.23
2023-04-17T08:55:38.879Z,66.15
2023-04-17T08:56:33.837Z,66.25
2023-04-17T08:57:33.914Z,66.42
2023-04-17T08:58:33.806Z,65.48
2023-04-17T08:59:33.815Z,64.87
2023-04-17T09:00:33.791Z,65.48
2023-04-17T09:01:33.823Z,65.37
2023-04-17T09:02:33.953Z,64.87
2023-04-17T09:03:33.902Z,64.56
2023-04-17T09:04:33.804Z,64.56
2023-04-17T09:05:33.757Z,64.67
2023-04-17T09:06:38.744Z,65.30
2023-04-17T09:07:33.695Z,66.35
2023-04-17T09:08:33.788Z,66.35
2023-04-17T09:09:33.673Z,66.25
2023-04-17T09:10:33.664Z,66.58
2023-04-17T09:11:33.663Z,66.66
2023-04-17T09:12:33.646Z,67.10
2023-04-17T09:13:33.629Z,67.71
2023-04-17T09:14:33.701Z,67.30
2023-04-17T09:15:33.882Z,68.11
2023-04-17T09:16:33.655Z,67.27
2023-04-17T09:17:38.702Z,67.50
2023-04-17T09:18:33.592Z,67.50
2023-04-17T09:19:35.073Z,67.91
2023-04-17T09:20:33.647Z,67.60
2023-04-17T09:21:33.558Z,67.50
2023-04-17T09:22:33.534Z,67.97
2023-04-17T09:23:33.515Z,67.57
2023-04-17T09:24:33.506Z,67.36
2023-04-17T09:25:33.491Z,67.50
2023-04-17T09:26:33.592Z,67.91
2023-04-17T09:27:33.479Z,67.40
2023-04-17T09:28:38.480Z,67.80
2023-04-17T09:29:33.453Z,67.71
2023-04-17T09:30:33.440Z,67.50
2023-04-17T09:31:33.485Z,68.21
2023-04-17T09:32:33.545Z,68.62
2023-04-17T09:33:33.403Z,67.91
2023-04-17T09:34:33.392Z,68.21
2023-04-17T09:35:33.400Z,67.60
2023-04-17T09:36:33.380Z,67.63
2023-04-17T09:37:33.366Z,68.21
2023-04-17T09:38:33.414Z,67.94
2023-04-17T09:39:38.367Z,69.06
2023-04-17T09:40:33.334Z,68.85
2023-04-17T09:41:33.323Z,68.85
2023-04-17T09:42:33.305Z,68.41
2023-04-17T09:43:33.292Z,68.44
2023-04-17T09:44:33.341Z,67.80
2023-04-17T09:45:33.392Z,68.65
2023-04-17T09:46:33.339Z,68.72
2023-04-17T09:47:33.297Z,68.44
2023-04-17T09:48:33.240Z,68.55
2023-04-17T09:49:33.221Z,68.44
2023-04-17T09:50:39.060Z,68.65
2023-04-17T09:51:33.213Z,68.65
2023-04-17T09:52:33.183Z,68.68
2023-04-17T09:53:33.168Z,68.65
2023-04-17T09:54:33.161Z,68.85
2023-04-17T09:55:33.146Z,68.44
2023-04-17T09:56:33.201Z,68.85
2023-04-17T09:57:33.134Z,68.65
2023-04-17T09:58:33.114Z,68.04
2023-04-17T09:59:33.100Z,68.35
2023-04-17T10:00:33.119Z,67.74
2023-04-17T10:01:38.200Z,67.74
2023-04-17T10:02:33.332Z,67.71
2023-04-17T10:03:36.646Z,67.40
2023-04-17T10:04:33.132Z,67.80
2023-04-17T10:05:33.161Z,67.30
2023-04-17T10:06:33.024Z,67.91
2023-04-17T10:07:33.015Z,68.41
2023-04-17T10:08:33.080Z,67.60
2023-04-17T10:09:32.988Z,68.32
2023-04-17T10:10:32.973Z,67.60
2023-04-17T10:11:32.988Z,66.99
2023-04-17T10:12:37.982Z,66.58
2023-04-17T10:13:32.934Z,66.69
2023-04-17T10:14:33.024Z,67.60
2023-04-17T10:15:32.921Z,67.57
2023-04-17T10:16:32.958Z,67.77
2023-04-17T10:17:32.927Z,68.01
2023-04-17T10:18:32.880Z,68.08
2023-04-17T10:19:33.005Z,68.18
2023-04-17T10:20:32.959Z,67.60
2023-04-17T10:21:32.843Z,68.21
2023-04-17T10:22:32.843Z,68.01
2023-04-17T10:23:37.842Z,67.67
2023-04-17T10:24:32.821Z,68.32
2023-04-17T10:25:32.799Z,68.62
2023-04-17T10:26:32.859Z,68.11
2023-04-17T10:27:32.808Z,68.41
2023-04-17T10:28:32.768Z,69.46
2023-04-17T10:29:32.761Z,69.16
2023-04-17T10:30:32.743Z,69.94
2023-04-17T10:31:32.778Z,69.74
2023-04-17T10:32:32.890Z,69.64
2023-04-17T10:33:32.712Z,69.40
2023-04-17T10:34:37.761Z,68.69
2023-04-17T10:35:32.697Z,69.64
2023-04-17T10:36:32.718Z,68.62
2023-04-17T10:37:32.674Z,69.43
2023-04-17T10:38:32.760Z,69.74
2023-04-17T10:39:32.642Z,69.64
2023-04-17T10:40:32.631Z,68.32
2023-04-17T10:41:32.661Z,68.82
2023-04-17T10:42:32.772Z,69.84
2023-04-17T10:43:32.606Z,69.77
2023-04-17T10:44:32.602Z,69.84
2023-04-17T10:45:37.664Z,69.02
2023-04-17T10:46:32.625Z,69.23
2023-04-17T10:47:32.602Z,69.74
2023-04-17T10:48:32.557Z,69.64
2023-04-17T10:49:32.532Z,69.94
2023-04-17T10:50:32.609Z,69.70
2023-04-17T10:51:32.506Z,69.81
2023-04-17T10:52:32.502Z,69.30
2023-04-17T10:53:32.495Z,69.70
2023-04-17T10:54:32.468Z,69.81
2023-04-17T10:55:32.483Z,69.17
2023-04-17T10:56:37.600Z,69.06
2023-04-17T10:57:32.446Z,68.35
2023-04-17T10:58:32.423Z,69.06
2023-04-17T10:59:32.413Z,68.62
2023-04-17T11:00:32.402Z,68.22
2023-04-17T11:01:32.464Z,68.05
2023-04-17T11:02:32.528Z,68.01
2023-04-17T11:03:32.452Z,68.25
2023-04-17T11:04:32.396Z,67.94
2023-04-17T11:05:32.362Z,68.86
2023-04-17T11:06:32.354Z,68.66
2023-04-17T11:07:37.356Z,67.84
2023-04-17T11:08:32.376Z,68.25
2023-04-17T11:09:32.298Z,68.55
2023-04-17T11:10:32.293Z,68.15
2023-04-17T11:11:43.489Z,67.94
2023-04-17T11:12:32.280Z,67.54
2023-04-17T11:13:32.272Z,66.83
2023-04-17T11:14:32.397Z,67.13
2023-04-17T11:15:32.233Z,67.33
2023-04-17T11:16:32.256Z,66.49
2023-04-17T11:17:32.260Z,66.90
2023-04-17T11:18:37.230Z,66.60
2023-04-17T11:19:32.201Z,65.34
2023-04-17T11:20:32.261Z,65.72
2023-04-17T11:21:32.170Z,64.70
2023-04-17T11:22:32.166Z,63.66
2023-04-17T11:23:32.166Z,63.46
2023-04-17T11:24:32.137Z,63.35
2023-04-17T11:25:32.139Z,62.41
2023-04-17T11:26:32.186Z,61.51
2023-04-17T11:27:32.104Z,61.40
2023-04-17T11:28:32.108Z,61.33
2023-04-17T11:29:37.106Z,61.02
2023-04-17T11:30:32.061Z,61.13
2023-04-17T11:31:32.130Z,61.43
2023-04-17T11:32:32.158Z,61.10
2023-04-17T11:33:32.038Z,60.52
2023-04-17T11:34:32.038Z,60.82
2023-04-17T11:35:32.039Z,60.21
2023-04-17T11:36:31.997Z,59.91
2023-04-17T11:37:31.986Z,59.17
2023-04-17T11:38:32.078Z,59.30
2023-04-17T11:39:31.966Z,60.52
2023-04-17T11:40:36.973Z,59.81
2023-04-17T11:41:31.939Z,59.78
2023-04-17T11:42:31.932Z,59.45
2023-04-17T11:43:31.928Z,58.51
2023-04-17T11:44:31.958Z,57.78
2023-04-17T11:45:31.895Z,57.57
2023-04-17T11:46:31.928Z,57.87
2023-04-17T11:47:31.925Z,57.67
2023-04-17T11:48:31.870Z,57.57
2023-04-17T11:49:31.895Z,57.78
2023-04-17T11:50:31.897Z,56.66
2023-04-17T11:51:36.850Z,56.89
2023-04-17T11:52:31.820Z,57.47
2023-04-17T11:53:31.817Z,57.47
2023-04-17T11:54:31.823Z,57.65
2023-04-17T11:55:31.786Z,57.65
2023-04-17T11:56:31.809Z,58.76
2023-04-17T11:57:31.760Z,59.47
2023-04-17T11:58:31.756Z,59.36
2023-04-17T11:59:31.737Z,58.65
2023-04-17T12:00:31.727Z,58.56
2023-04-17T12:01:31.748Z,58.56
2023-04-17T12:02:36.887Z,57.85
2023-04-17T12:03:31.966Z,58.36
2023-04-17T12:04:31.802Z,57.62
2023-04-17T12:05:31.809Z,56.91
2023-04-17T12:06:31.656Z,57.18
2023-04-17T12:07:31.673Z,56.56
2023-04-17T12:08:31.685Z,55.34
2023-04-17T12:09:31.749Z,54.31
2023-04-17T12:10:32.058Z,53.27
2023-04-17T12:11:31.605Z,53.05
2023-04-17T12:12:31.613Z,52.51
2023-04-17T12:13:36.607Z,51.61
2023-04-17T12:14:31.645Z,50.25
2023-04-17T12:15:31.567Z,49.47
2023-04-17T12:16:31.654Z,50.68
2023-04-17T12:17:31.570Z,50.27
2023-04-17T12:18:31.525Z,50.68
2023-04-17T12:19:31.515Z,50.80
2023-04-17T12:20:31.536Z,52.87
2023-04-17T12:21:31.493Z,53.09
2023-04-17T12:22:31.475Z,54.74
2023-04-17T12:23:31.483Z,54.53
2023-04-17T12:24:36.473Z,54.89
2023-04-17T12:25:31.456Z,53.27
2023-04-17T12:26:31.510Z,53.22
2023-04-17T12:27:31.418Z,53.72
2023-04-17T12:28:31.403Z,53.63
2023-04-17T12:29:43.700Z,53.55
2023-04-17T12:30:32.383Z,54.79
2023-04-17T12:31:31.404Z,54.31
2023-04-17T12:32:31.468Z,54.71
2023-04-17T12:33:31.350Z,55.62
2023-04-17T12:34:31.345Z,55.34
2023-04-17T12:35:36.348Z,55.27
2023-04-17T12:36:31.451Z,56.78
2023-04-17T12:37:31.346Z,56.61
2023-04-17T12:38:31.369Z,57.44
2023-04-17T12:39:31.313Z,57.57
2023-04-17T12:40:31.269Z,57.57
2023-04-17T12:41:31.268Z,58.58
2023-04-17T12:42:33.666Z,58.38
2023-04-17T12:43:32.243Z,58.51
2023-04-17T12:44:31.295Z,59.55
2023-04-17T12:45:31.250Z,60.49
2023-04-17T12:46:36.234Z,59.50
2023-04-17T12:47:31.222Z,59.70
2023-04-17T12:48:33.057Z,60.49
2023-04-17T12:49:31.183Z,60.28
2023-04-17T12:50:31.216Z,59.20
2023-04-17T12:51:31.164Z,60.28
2023-04-17T12:52:31.138Z,60.21